Time;durP1;ratioP1;P1;durP2;ratioP2;P2;SDS_P1;SDS_P2;PMS_P1;PMS_P2;Temp;Humidity;BMP_temperature;BMP_pressure;BME280_temperature;BME280_humidity;BME280_pressure;Samples;Min_cycle;Max_cycle;Signal;HPM_P1;HPM_P2
2023/02/17 00:01:11;;;;;;;3.50;2.60;;;;;;;11.54;57.46;99544.44;5040658;27;104110;-68
2023/02/17 00:03:39;;;;;;;2.93;2.27;;;;;;;11.48;57.30;99540.38;5041058;27;103257;-68
2023/02/17 00:06:09;;;;;;;3.17;2.87;;;;;;;11.65;56.76;99547.25;5050239;27;103849;-68
2023/02/17 00:08:37;;;;;;;2.90;2.60;;;;;;;11.53;57.37;99543.63;5040835;27;103149;-68
2023/02/17 00:11:06;;;;;;;3.30;2.53;;;;;;;11.49;57.40;99552.69;5044211;27;102665;-68
2023/02/17 00:13:34;;;;;;;3.10;2.60;;;;;;;11.55;57.50;99549.66;5041680;27;103299;-69
2023/02/17 00:16:06;;;;;;;4.93;2.73;;;;;;;11.50;56.84;99538.53;5049303;27;103300;-68
2023/02/17 00:18:34;;;;;;;4.07;3.13;;;;;;;11.44;57.13;99543.34;5036351;27;103073;-69
2023/02/17 00:21:13;;;;;;;5.20;3.13;;;;;;;11.47;56.44;99544.00;5046181;27;102899;-68
2023/02/17 00:23:41;;;;;;;4.80;3.33;;;;;;;11.42;56.60;99538.16;5050238;27;103315;-69
2023/02/17 00:26:09;;;;;;;4.03;3.03;;;;;;;11.35;57.05;99539.47;5038630;27;104353;-69
2023/02/17 00:28:37;;;;;;;4.70;3.20;;;;;;;11.28;56.39;99530.22;5038130;27;102579;-68
2023/02/17 00:31:09;;;;;;;4.30;3.40;;;;;;;11.18;57.67;99530.88;5050060;27;103941;-69
2023/02/17 00:33:39;;;;;;;5.70;3.10;;;;;;;10.92;58.97;99524.53;5045222;27;103249;-69
2023/02/17 00:36:12;;;;;;;3.50;2.70;;;;;;;11.21;57.21;99523.59;5051965;27;103215;-68
2023/02/17 00:38:42;;;;;;;4.23;2.90;;;;;;;11.23;57.04;99524.34;5045472;27;102636;-69
2023/02/17 00:41:13;;;;;;;4.83;3.00;;;;;;;11.30;56.36;99525.69;5041748;27;104073;-68
2023/02/17 00:43:41;;;;;;;3.87;3.00;;;;;;;11.18;57.09;99525.56;5050868;27;103597;-69
2023/02/17 00:46:08;;;;;;;4.10;3.17;;;;;;;11.23;57.38;99531.47;5037441;27;103199;-68
2023/02/17 00:48:36;;;;;;;5.93;3.17;;;;;;;11.07;57.35;99521.81;5045915;27;102644;-68
2023/02/17 00:51:05;;;;;;;4.17;3.03;;;;;;;11.06;57.35;99521.88;5044882;27;102946;-68
2023/02/17 00:53:36;;;;;;;4.60;3.43;;;;;;;10.59;58.40;99530.06;5043745;27;103176;-69
2023/02/17 00:56:04;;;;;;;5.73;3.50;;;;;;;10.81;58.58;99538.41;5053589;27;104244;-68
2023/02/17 00:58:32;;;;;;;5.40;2.90;;;;;;;10.83;57.97;99540.97;5033898;27;102696;-68
2023/02/17 01:01:02;;;;;;;4.00;3.03;;;;;;;10.80;58.53;99535.84;5041458;27;102791;-69
2023/02/17 01:03:30;;;;;;;5.43;3.30;;;;;;;10.74;58.87;99537.06;5038626;27;105994;-69
2023/02/17 01:05:59;;;;;;;3.83;3.07;;;;;;;10.86;58.59;99536.31;5041158;27;104306;-68
2023/02/17 01:08:26;;;;;;;3.80;3.07;;;;;;;10.90;58.93;99543.13;5048181;27;102775;-68
2023/02/17 01:10:56;;;;;;;4.30;2.70;;;;;;;10.94;58.68;99531.44;5037033;27;103900;-69
2023/02/17 01:13:24;;;;;;;2.97;2.67;;;;;;;10.84;60.05;99529.44;5043130;27;104168;-68
2023/02/17 01:15:55;;;;;;;4.63;3.00;;;;;;;10.77;58.95;99526.31;5052834;27;104237;-68
2023/02/17 01:18:23;;;;;;;3.60;2.97;;;;;;;11.01;58.42;99527.47;5050840;27;102795;-69
2023/02/17 01:20:52;;;;;;;3.37;2.83;;;;;;;10.98;57.93;99530.31;5046972;27;103789;-68
2023/02/17 01:23:20;;;;;;;5.07;3.40;;;;;;;11.03;57.75;99525.56;5036163;27;104483;-68
2023/02/17 01:25:49;;;;;;;3.67;2.63;;;;;;;11.18;57.81;99521.16;5052813;27;104444;-68
2023/02/17 01:28:21;;;;;;;6.33;3.33;;;;;;;11.24;57.36;99520.78;5045642;27;102893;-68
2023/02/17 01:30:49;;;;;;;3.30;3.00;;;;;;;11.28;57.37;99513.50;5037007;27;103772;-69
2023/02/17 01:33:17;;;;;;;4.17;2.97;;;;;;;11.24;57.40;99517.25;5040349;27;105101;-68
2023/02/17 01:35:45;;;;;;;3.87;2.83;;;;;;;11.34;57.19;99507.84;5046351;27;103209;-69
2023/02/17 01:38:13;;;;;;;6.00;3.23;;;;;;;11.16;57.88;99516.91;5040646;27;103258;-69
2023/02/17 01:40:46;;;;;;;3.37;2.97;;;;;;;11.30;57.34;99514.25;5040414;27;102681;-69
2023/02/17 01:43:17;;;;;;;3.47;2.47;;;;;;;11.24;57.72;99509.34;5038072;27;104034;-69
2023/02/17 01:45:52;;;;;;;4.30;2.60;;;;;;;11.31;57.60;99505.38;5049696;27;103132;-69
2023/02/17 01:48:22;;;;;;;4.00;2.83;;;;;;;11.29;57.62;99497.50;5035506;27;103134;-69
2023/02/17 01:51:00;;;;;;;5.83;2.60;;;;;;;11.34;57.57;99490.13;5044291;27;103539;-69
2023/02/17 01:53:34;;;;;;;3.20;2.37;;;;;;;11.35;57.79;99485.69;5040363;27;104278;-69
2023/02/17 01:56:03;;;;;;;3.37;2.63;;;;;;;11.26;58.08;99486.28;5039022;27;104158;-68
2023/02/17 01:58:33;;;;;;;2.60;2.40;;;;;;;11.38;57.68;99493.44;5046088;27;102820;-69
2023/02/17 02:01:05;;;;;;;4.57;2.20;;;;;;;11.43;57.61;99486.91;5043422;27;103734;-69
2023/02/17 02:03:38;;;;;;;5.17;2.67;;;;;;;11.49;57.20;99493.63;5042921;27;104334;-69
2023/02/17 02:06:11;;;;;;;5.60;2.60;;;;;;;11.44;57.66;99496.56;5044464;27;103183;-68
2023/02/17 02:08:47;;;;;;;5.33;2.80;;;;;;;11.34;57.79;99490.13;5047794;27;103387;-69
2023/02/17 02:11:15;;;;;;;2.63;2.43;;;;;;;11.43;57.51;99484.28;5047859;27;104124;-68
2023/02/17 02:13:49;;;;;;;7.13;3.07;;;;;;;11.37;57.34;99475.84;5049257;27;103144;-69
2023/02/17 02:16:24;;;;;;;3.07;2.70;;;;;;;11.45;57.54;99470.97;5046783;27;103275;-68
2023/02/17 02:19:00;;;;;;;4.00;2.20;;;;;;;11.46;57.58;99472.63;5048176;27;102682;-69
2023/02/17 02:22:07;;;;;;;4.47;2.53;;;;;;;11.42;57.23;99479.09;5048130;27;103906;-68
2023/02/17 02:24:48;;;;;;;3.17;2.30;;;;;;;11.43;57.51;99470.19;5003840;27;104302;-68
2023/02/17 02:27:41;;;;;;;5.57;2.57;;;;;;;11.47;57.46;99469.06;5047038;27;103252;-68
2023/02/17 02:30:41;;;;;;;4.57;2.63;;;;;;;11.14;58.19;99476.47;5046797;27;103042;-69
2023/02/17 02:33:17;;;;;;;5.50;2.83;;;;;;;11.34;57.86;99470.78;5043154;27;103522;-68
2023/02/17 02:35:55;;;;;;;4.40;2.67;;;;;;;11.37;57.94;99466.13;5037697;27;105199;-68
2023/02/17 02:38:28;;;;;;;4.00;2.30;;;;;;;11.38;58.27;99464.34;5045924;27;103273;-68
2023/02/17 02:41:02;;;;;;;3.40;2.20;;;;;;;11.40;57.80;99467.72;5038413;27;102666;-69
2023/02/17 02:43:31;;;;;;;2.47;2.10;;;;;;;11.41;57.78;99464.16;5049867;27;104355;-69
2023/02/17 02:45:59;;;;;;;3.93;2.40;;;;;;;11.33;57.97;99456.72;5047447;27;104277;-68
2023/02/17 02:48:29;;;;;;;3.27;2.23;;;;;;;11.39;57.74;99455.47;5036869;27;103417;-68
2023/02/17 02:51:10;;;;;;;2.43;2.20;;;;;;;11.32;58.08;99464.72;5042757;27;102704;-69
2023/02/17 02:53:54;;;;;;;2.80;2.50;;;;;;;11.29;58.44;99451.69;5036274;27;104009;-68
2023/02/17 02:56:35;;;;;;;3.27;2.40;;;;;;;11.26;58.56;99459.81;5041696;27;105078;-69
2023/02/17 02:59:14;;;;;;;2.73;2.30;;;;;;;11.26;59.00;99458.03;5036019;27;103857;-69
2023/02/17 03:01:50;;;;;;;2.87;2.57;;;;;;;11.22;58.89;99448.59;5037105;27;103315;-69
2023/02/17 03:04:30;;;;;;;3.33;2.33;;;;;;;11.22;58.57;99447.75;5048319;27;102787;-68
2023/02/17 03:07:03;;;;;;;4.63;2.60;;;;;;;11.18;58.70;99444.44;5039395;27;105904;-69
2023/02/17 03:09:31;;;;;;;4.03;2.93;;;;;;;10.99;59.07;99441.25;5041554;27;105279;-69
2023/02/17 03:11:59;;;;;;;3.83;2.90;;;;;;;10.87;58.75;99434.94;5057341;27;102696;-69
2023/02/17 03:14:36;;;;;;;2.67;2.30;;;;;;;11.03;58.63;99433.03;5043516;27;103722;-69
2023/02/17 03:17:06;;;;;;;5.30;2.77;;;;;;;10.81;58.74;99424.72;5044212;27;103808;-69
2023/02/17 03:19:35;;;;;;;2.90;2.20;;;;;;;11.07;58.61;99429.25;5041422;27;103204;-69
2023/02/17 03:22:10;;;;;;;3.57;2.80;;;;;;;11.09;58.44;99430.97;5052757;27;102678;-69
2023/02/17 03:24:38;;;;;;;3.63;2.23;;;;;;;11.09;58.19;99429.16;5042546;27;103522;-69
2023/02/17 03:27:08;;;;;;;4.10;2.83;;;;;;;10.91;58.31;99433.81;5043403;27;105693;-69
2023/02/17 03:29:36;;;;;;;3.67;2.63;;;;;;;11.11;57.80;99429.91;5042891;27;104137;-69
2023/02/17 03:32:04;;;;;;;3.73;2.53;;;;;;;11.26;57.29;99433.38;5042505;27;102687;-69
2023/02/17 03:34:32;;;;;;;3.63;2.40;;;;;;;11.26;57.33;99439.50;5045458;27;102674;-70
2023/02/17 03:37:01;;;;;;;4.17;2.40;;;;;;;11.36;57.14;99445.94;5051543;27;103557;-68
2023/02/17 03:39:29;;;;;;;3.03;2.73;;;;;;;11.20;57.98;99445.19;5044569;27;103214;-69
2023/02/17 03:41:58;;;;;;;2.30;2.00;;;;;;;11.31;58.02;99439.25;5039049;27;103967;-69
2023/02/17 03:44:26;;;;;;;2.10;1.90;;;;;;;11.29;58.04;99435.81;5048489;27;104328;-69
2023/02/17 03:46:54;;;;;;;5.23;2.47;;;;;;;11.17;58.03;99437.44;5050785;27;103655;-69
2023/02/17 03:49:22;;;;;;;7.13;2.70;;;;;;;11.27;58.04;99435.94;5054650;27;103292;-70
2023/02/17 03:51:49;;;;;;;3.00;2.20;;;;;;;11.30;57.78;99434.88;5040490;27;102546;-69
2023/02/17 03:54:19;;;;;;;3.23;2.27;;;;;;;11.24;58.21;99441.41;5046879;27;102771;-70
2023/02/17 03:56:46;;;;;;;2.50;1.90;;;;;;;11.20;58.21;99442.53;5039764;27;104056;-69
2023/02/17 03:59:16;;;;;;;4.30;2.50;;;;;;;11.16;58.20;99438.41;5043128;27;103219;-69
2023/02/17 04:01:44;;;;;;;4.17;2.07;;;;;;;11.17;58.29;99441.91;5045228;27;102642;-69
2023/02/17 04:04:12;;;;;;;4.53;2.37;;;;;;;11.14;58.55;99444.75;5041913;27;103167;-69
2023/02/17 04:06:40;;;;;;;4.57;2.70;;;;;;;11.12;58.56;99449.25;5037947;27;104150;-69
2023/02/17 04:09:08;;;;;;;4.30;2.30;;;;;;;11.02;58.88;99452.50;5036739;27;103276;-69
2023/02/17 04:11:37;;;;;;;4.80;2.77;;;;;;;11.10;58.84;99459.09;5039402;27;102632;-69
2023/02/17 04:14:07;;;;;;;2.80;2.17;;;;;;;11.15;58.46;99449.06;5046540;27;103620;-69
2023/02/17 04:16:37;;;;;;;3.20;2.23;;;;;;;11.17;58.64;99450.66;5040377;27;103261;-69
2023/02/17 04:19:06;;;;;;;3.77;2.83;;;;;;;11.20;58.64;99454.94;5035056;27;103912;-69
2023/02/17 04:21:34;;;;;;;4.33;2.80;;;;;;;11.14;58.83;99463.25;5044369;27;102627;-70
2023/02/17 04:24:03;;;;;;;4.17;2.47;;;;;;;10.98;59.54;99461.56;5052544;27;103947;-70
2023/02/17 04:26:31;;;;;;;4.43;2.40;;;;;;;11.18;59.10;99462.09;5042331;27;103442;-70
2023/02/17 04:29:03;;;;;;;4.00;2.30;;;;;;;11.24;58.84;99459.94;5046707;27;103267;-70
2023/02/17 04:31:31;;;;;;;3.40;2.67;;;;;;;11.24;58.64;99456.44;5041254;27;102652;-70
2023/02/17 04:33:59;;;;;;;3.33;2.07;;;;;;;11.28;58.73;99450.88;5041745;27;102801;-71
2023/02/17 04:36:27;;;;;;;3.90;2.33;;;;;;;11.27;59.02;99445.66;5051300;27;104279;-70
2023/02/17 04:38:57;;;;;;;4.80;2.07;;;;;;;11.31;58.99;99447.19;5045137;27;103231;-69
2023/02/17 04:41:24;;;;;;;3.27;2.23;;;;;;;11.25;59.29;99443.13;5042242;27;102604;-69
2023/02/17 04:43:52;;;;;;;5.40;2.90;;;;;;;11.10;59.57;99443.22;5048771;27;102677;-70
2023/02/17 04:46:21;;;;;;;4.77;2.30;;;;;;;11.25;59.58;99444.91;5041956;27;103205;-69
2023/02/17 04:48:49;;;;;;;5.33;2.20;;;;;;;11.17;60.23;99436.63;5054491;27;103130;-76
2023/02/17 04:51:17;;;;;;;3.20;2.57;;;;;;;11.16;60.65;99437.56;5044432;27;102738;-70
2023/02/17 04:53:45;;;;;;;4.00;2.50;;;;;;;11.31;60.36;99431.31;5055270;27;103760;-70
2023/02/17 04:56:12;;;;;;;4.63;3.00;;;;;;;11.25;60.96;99434.34;5038176;27;104037;-69
2023/02/17 04:58:40;;;;;;;3.33;2.50;;;;;;;11.31;60.98;99437.41;5038437;27;103277;-70
2023/02/17 05:01:08;;;;;;;6.87;3.03;;;;;;;11.19;61.44;99438.22;5036218;27;102823;-70
2023/02/17 05:03:37;;;;;;;3.87;2.70;;;;;;;11.37;60.92;99437.03;5045710;27;104540;-70
2023/02/17 05:06:05;;;;;;;4.63;2.93;;;;;;;11.55;60.68;99427.06;5043893;27;103497;-70
2023/02/17 05:08:34;;;;;;;4.17;2.73;;;;;;;11.38;61.05;99432.59;5047992;27;103178;-70
2023/02/17 05:11:01;;;;;;;10.00;2.87;;;;;;;11.37;61.20;99420.31;5036748;27;103009;-70
2023/02/17 05:13:29;;;;;;;6.90;2.43;;;;;;;11.61;60.50;99421.38;5037958;27;103721;-70
2023/02/17 05:15:59;;;;;;;6.47;2.67;;;;;;;11.61;60.71;99429.31;5041687;27;104014;-70
2023/02/17 05:18:27;;;;;;;3.23;2.53;;;;;;;11.54;60.85;99423.56;5044124;27;104192;-70
2023/02/17 05:20:56;;;;;;;3.40;2.17;;;;;;;11.52;61.38;99429.91;5043973;27;102771;-70
2023/02/17 05:23:24;;;;;;;6.77;3.00;;;;;;;11.57;61.22;99422.53;5046491;27;102840;-70
2023/02/17 05:25:52;;;;;;;5.53;2.43;;;;;;;11.51;61.44;99423.75;5046314;27;104253;-70
2023/02/17 05:28:19;;;;;;;7.17;2.47;;;;;;;11.77;60.82;99419.44;5051512;27;103219;-70
2023/02/17 05:30:48;;;;;;;3.53;2.37;;;;;;;11.77;60.63;99429.19;5052128;27;102736;-70
2023/02/17 05:33:16;;;;;;;4.00;2.87;;;;;;;11.69;60.96;99437.66;5050042;27;102838;-70
2023/02/17 05:35:44;;;;;;;4.50;3.00;;;;;;;11.77;60.84;99434.47;5048983;27;103918;-70
2023/02/17 05:38:13;;;;;;;3.47;2.60;;;;;;;11.72;61.14;99434.78;5038683;27;104308;-70
2023/02/17 05:40:41;;;;;;;3.57;2.40;;;;;;;11.82;61.08;99438.53;5049190;27;104089;-70
2023/02/17 05:43:09;;;;;;;3.13;2.43;;;;;;;11.73;62.05;99444.44;5053698;27;102713;-70
2023/02/17 05:45:39;;;;;;;4.07;2.80;;;;;;;11.65;62.32;99446.69;5040971;27;103257;-70
2023/02/17 05:48:06;;;;;;;3.67;3.07;;;;;;;11.81;62.28;99441.28;5049200;27;103141;-70
2023/02/17 05:50:36;;;;;;;4.23;2.43;;;;;;;11.79;62.61;99451.97;5049662;27;102691;-70
2023/02/17 05:53:04;;;;;;;4.20;2.63;;;;;;;11.87;62.37;99446.19;5044002;27;103595;-70
2023/02/17 05:55:33;;;;;;;4.00;2.50;;;;;;;12.03;61.87;99450.38;5041829;27;104284;-70
2023/02/17 05:58:01;;;;;;;5.20;2.33;;;;;;;11.87;62.87;99452.34;5045255;27;103195;-70
2023/02/17 06:00:29;;;;;;;4.63;3.20;;;;;;;11.80;63.08;99456.31;5045570;27;102691;-70
2023/02/17 06:02:57;;;;;;;6.43;3.10;;;;;;;11.83;63.49;99456.13;5040758;27;102727;-70
2023/02/17 06:05:25;;;;;;;4.13;3.00;;;;;;;11.82;63.71;99465.00;5042183;27;103909;-70
2023/02/17 06:07:52;;;;;;;6.17;3.10;;;;;;;11.63;64.40;99459.19;5034582;27;104110;-70
2023/02/17 06:10:20;;;;;;;7.83;3.00;;;;;;;11.81;63.86;99455.38;5040870;27;102691;-70
2023/02/17 06:12:50;;;;;;;7.10;3.10;;;;;;;11.68;64.66;99462.38;5047613;27;104101;-70
2023/02/17 06:15:17;;;;;;;5.97;3.10;;;;;;;11.63;65.57;99459.19;5011352;27;103592;-68
2023/02/17 06:17:45;;;;;;;3.70;3.00;;;;;;;11.86;64.88;99469.16;5026502;27;103464;-69
2023/02/17 06:20:14;;;;;;;3.10;2.43;;;;;;;11.92;64.78;99466.13;5040276;27;103140;-70
2023/02/17 06:22:42;;;;;;;4.83;3.00;;;;;;;11.79;65.44;99465.19;5042898;27;102746;-68
2023/02/17 06:25:12;;;;;;;3.47;2.90;;;;;;;11.88;65.40;99469.91;5039753;27;103276;-69
2023/02/17 06:27:41;;;;;;;3.03;2.70;;;;;;;11.84;65.94;99472.88;5033730;27;104232;-67
2023/02/17 06:30:12;;;;;;;5.17;2.80;;;;;;;11.87;65.92;99476.16;5032463;27;102841;-67
2023/02/17 06:32:40;;;;;;;5.70;3.10;;;;;;;11.90;66.06;99477.75;5027547;27;102773;-68
2023/02/17 06:35:08;;;;;;;5.07;3.03;;;;;;;12.02;65.78;99477.78;5034205;27;104131;-67
2023/02/17 06:37:36;;;;;;;3.00;2.47;;;;;;;11.74;66.67;99477.03;5029295;27;104613;-67
2023/02/17 06:40:07;;;;;;;6.00;2.93;;;;;;;11.72;66.93;99469.22;5037308;27;102785;-68
2023/02/17 06:42:35;;;;;;;7.77;3.03;;;;;;;11.99;66.23;99475.34;5031722;27;103786;-68
2023/02/17 06:45:04;;;;;;;4.90;3.27;;;;;;;12.09;65.93;99473.81;5041682;27;104787;-67
2023/02/17 06:47:35;;;;;;;3.40;2.67;;;;;;;11.66;67.26;99464.28;5042995;27;104347;-68
2023/02/17 06:50:06;;;;;;;4.03;2.43;;;;;;;11.83;67.29;99471.16;5038320;27;102817;-68
2023/02/17 06:52:34;;;;;;;3.83;2.67;;;;;;;11.99;66.77;99474.50;5041834;27;104019;-68
2023/02/17 06:55:02;;;;;;;2.80;2.30;;;;;;;11.99;67.25;99478.00;5045938;27;104235;-68
2023/02/17 06:57:30;;;;;;;4.73;3.00;;;;;;;11.99;67.22;99485.94;5041662;27;103077;-68
2023/02/17 06:59:58;;;;;;;4.70;3.10;;;;;;;11.98;67.21;99492.19;5040414;27;102679;-68
2023/02/17 07:02:26;;;;;;;4.93;2.70;;;;;;;11.94;67.45;99488.03;5036283;27;103909;-68
2023/02/17 07:04:55;;;;;;;5.00;2.77;;;;;;;11.95;67.46;99487.09;5044097;27;104350;-68
2023/02/17 07:07:23;;;;;;;4.57;2.80;;;;;;;11.98;67.35;99497.50;5039028;27;103175;-69
2023/02/17 07:09:51;;;;;;;3.17;2.40;;;;;;;12.19;66.75;99496.06;5038876;27;102769;-69
2023/02/17 07:12:18;;;;;;;5.70;2.63;;;;;;;12.24;66.67;99492.28;5037711;27;103828;-69
2023/02/17 07:14:46;;;;;;;3.53;2.70;;;;;;;12.25;66.75;99493.97;5044991;27;104473;-69
2023/02/17 07:17:16;;;;;;;2.90;2.13;;;;;;;12.24;66.76;99494.94;5040680;27;103655;-68
2023/02/17 07:19:44;;;;;;;5.53;2.80;;;;;;;12.06;67.17;99497.84;5048580;27;102674;-68
2023/02/17 07:22:13;;;;;;;3.77;2.83;;;;;;;11.99;67.49;99499.19;5040925;27;103812;-68
2023/02/17 07:24:41;;;;;;;4.63;3.00;;;;;;;11.83;67.89;99503.78;5042310;27;104168;-68
2023/02/17 07:27:08;;;;;;;3.27;2.57;;;;;;;11.85;68.34;99509.81;5051704;27;103539;-68
2023/02/17 07:29:37;;;;;;;3.13;2.60;;;;;;;11.92;67.91;99511.13;5047061;27;102663;-68
2023/02/17 07:32:05;;;;;;;4.23;2.70;;;;;;;12.14;67.39;99514.06;5040616;27;102943;-68
2023/02/17 07:34:33;;;;;;;7.57;2.90;;;;;;;12.25;67.33;99508.06;5042458;27;104275;-68
2023/02/17 07:37:01;;;;;;;3.77;2.63;;;;;;;12.35;66.74;99518.91;5049152;27;104349;-69
2023/02/17 07:39:30;;;;;;;4.33;2.50;;;;;;;12.21;67.33;99517.16;5047345;27;102656;-69
2023/02/17 07:41:59;;;;;;;3.83;2.40;;;;;;;12.17;67.82;99508.56;5046500;27;102855;-68
2023/02/17 07:44:28;;;;;;;3.80;2.20;;;;;;;12.30;67.36;99510.38;5053380;27;103937;-68
2023/02/17 07:46:56;;;;;;;5.33;3.07;;;;;;;12.32;67.38;99505.88;5034897;27;102912;-68
2023/02/17 07:49:23;;;;;;;4.20;2.50;;;;;;;12.28;67.66;99521.09;5043072;27;103416;-68
2023/02/17 07:51:51;;;;;;;3.00;2.27;;;;;;;12.37;67.44;99509.03;5045750;27;102782;-68
2023/02/17 07:54:19;;;;;;;2.77;2.53;;;;;;;12.13;68.77;99512.38;5049772;27;103294;-68
2023/02/17 07:56:48;;;;;;;3.53;2.33;;;;;;;12.30;68.28;99515.69;5054396;27;103175;-68
2023/02/17 07:59:16;;;;;;;2.97;2.17;;;;;;;12.34;68.30;99517.19;5052277;27;102679;-67
2023/02/17 08:01:44;;;;;;;4.03;2.63;;;;;;;12.30;68.23;99519.19;5036613;27;102689;-66
2023/02/17 08:04:12;;;;;;;4.13;2.40;;;;;;;12.39;68.41;99528.34;5041119;27;103336;-68
2023/02/17 08:06:40;;;;;;;2.73;2.17;;;;;;;12.17;68.93;99523.63;5047101;27;103236;-67
2023/02/17 08:14:43;;;;;;;4.27;2.33;;;;;;;12.87;67.26;99514.41;5042014;27;103886;-67
2023/02/17 08:17:11;;;;;;;3.00;1.97;;;;;;;13.01;66.94;99511.66;5057114;27;103285;-67
2023/02/17 08:19:39;;;;;;;4.73;2.50;;;;;;;12.66;67.71;99518.50;5039224;27;102735;-68
2023/02/17 08:22:15;;;;;;;2.70;2.47;;;;;;;12.52;68.22;99526.59;5057234;27;103773;-68
2023/02/17 08:24:44;;;;;;;4.33;2.53;;;;;;;12.75;68.16;99523.19;5032781;27;103244;-68
2023/02/17 08:27:14;;;;;;;2.60;1.90;;;;;;;12.62;68.46;99530.31;5046074;27;103463;-67
2023/02/17 08:29:42;;;;;;;2.90;2.00;;;;;;;13.07;66.92;99527.19;5047261;27;102613;-68
2023/02/17 08:32:10;;;;;;;2.30;2.10;;;;;;;12.95;67.67;99522.69;5033358;27;103407;-68
2023/02/17 08:34:38;;;;;;;3.40;1.90;;;;;;;13.01;67.36;99527.56;5038714;27;103262;-68
2023/02/17 08:37:07;;;;;;;3.60;2.30;;;;;;;13.06;66.99;99525.44;5030789;27;104262;-67
2023/02/17 08:39:36;;;;;;;3.17;2.10;;;;;;;12.82;68.20;99521.84;5035384;27;103160;-68
2023/02/17 08:42:04;;;;;;;2.57;2.03;;;;;;;12.60;69.14;99524.25;5038072;27;103779;-68
2023/02/17 08:44:36;;;;;;;2.20;1.70;;;;;;;12.78;69.06;99530.94;5038314;27;103298;-68
2023/02/17 08:47:05;;;;;;;2.90;1.73;;;;;;;12.88;68.80;99520.56;5035441;27;103204;-68
2023/02/17 08:49:33;;;;;;;2.03;1.80;;;;;;;13.06;68.30;99514.84;5042386;27;102675;-68
2023/02/17 08:52:02;;;;;;;4.30;2.63;;;;;;;12.80;68.96;99518.44;5039764;27;103101;-67
2023/02/17 08:54:30;;;;;;;3.23;2.20;;;;;;;13.08;68.63;99522.75;5053386;27;103276;-68
2023/02/17 08:57:00;;;;;;;3.13;2.00;;;;;;;12.90;69.01;99524.81;5042539;27;103291;-68
2023/02/17 08:59:27;;;;;;;6.80;2.00;;;;;;;13.06;68.38;99514.84;5040744;27;104497;-68
2023/02/17 09:01:57;;;;;;;2.90;1.77;;;;;;;12.83;69.34;99520.03;5038611;27;104255;-70
2023/02/17 09:04:25;;;;;;;3.17;1.93;;;;;;;12.91;69.62;99515.91;5048655;27;104102;-68
2023/02/17 09:06:55;;;;;;;3.40;2.20;;;;;;;12.99;69.30;99523.34;5043041;27;103407;-67
2023/02/17 09:09:26;;;;;;;2.13;1.93;;;;;;;12.55;70.61;99507.78;5054048;27;102950;-67
2023/02/17 09:11:55;;;;;;;2.97;1.73;;;;;;;12.76;70.62;99514.31;5033094;27;103798;-68
2023/02/17 09:14:23;;;;;;;4.73;1.90;;;;;;;12.70;70.65;99512.06;5047452;27;104039;-68
2023/02/17 09:16:54;;;;;;;1.70;1.47;;;;;;;12.56;71.32;99512.16;5035192;27;103220;-68
2023/02/17 09:19:24;;;;;;;3.47;1.63;;;;;;;12.65;71.34;99519.50;5035401;27;102741;-67
2023/02/17 09:21:52;;;;;;;2.57;1.80;;;;;;;12.67;71.12;99513.13;5032649;27;103777;-68
2023/02/17 09:24:20;;;;;;;4.27;2.03;;;;;;;12.97;70.16;99520.78;5039310;27;103837;-67
2023/02/17 09:26:48;;;;;;;2.37;1.93;;;;;;;12.64;71.39;99533.69;5036889;27;103151;-67
2023/02/17 09:29:16;;;;;;;2.43;1.80;;;;;;;12.69;71.15;99528.91;5042700;27;102689;-68
2023/02/17 09:31:44;;;;;;;3.37;1.77;;;;;;;13.08;70.35;99528.03;5037037;27;103066;-68
2023/02/17 09:34:12;;;;;;;1.90;1.60;;;;;;;13.12;69.79;99530.38;5045022;27;103797;-68
2023/02/17 09:36:42;;;;;;;2.27;1.90;;;;;;;13.12;70.14;99530.38;5043720;27;103193;-67
2023/02/17 09:39:13;;;;;;;1.87;1.27;;;;;;;13.48;69.31;99537.53;5038280;27;102663;-68
2023/02/17 09:41:46;;;;;;;4.40;2.00;;;;;;;13.32;69.58;99537.78;5047253;27;103981;-68
2023/02/17 09:44:20;;;;;;;2.47;1.73;;;;;;;13.23;70.09;99538.41;5041387;27;104246;-68
2023/02/17 09:46:56;;;;;;;2.03;1.40;;;;;;;13.65;69.14;99549.59;5046935;27;103183;-68
2023/02/17 09:49:36;;;;;;;1.97;1.77;;;;;;;13.42;69.46;99545.94;5046272;27;102711;-68
2023/02/17 09:52:14;;;;;;;2.03;1.73;;;;;;;13.27;69.87;99550.53;5053603;27;102696;-68
2023/02/17 09:54:49;;;;;;;1.60;1.50;;;;;;;13.45;69.60;99555.47;5041595;27;104141;-68
2023/02/17 09:57:21;;;;;;;2.57;1.47;;;;;;;13.85;68.56;99557.00;5050865;27;103199;-68
2023/02/17 09:59:55;;;;;;;2.77;1.47;;;;;;;13.80;68.56;99553.84;5054188;27;102932;-68
2023/02/17 10:02:27;;;;;;;2.40;1.60;;;;;;;13.70;69.25;99556.28;5049375;27;104023;-68
2023/02/17 10:05:00;;;;;;;1.93;1.40;;;;;;;13.86;68.86;99558.72;5044164;27;104146;-69
2023/02/17 10:07:34;;;;;;;4.33;1.60;;;;;;;13.88;68.55;99556.78;5044204;27;102661;-67
2023/02/17 10:10:05;;;;;;;1.33;1.23;;;;;;;13.92;68.61;99548.47;5050400;27;102756;-68
2023/02/17 10:12:38;;;;;;;2.30;1.30;;;;;;;14.03;68.01;99545.06;5046893;27;104100;-67
2023/02/17 10:15:09;;;;;;;1.97;1.47;;;;;;;14.17;68.00;99541.38;5056147;27;103260;-68
2023/02/17 10:17:45;;;;;;;2.83;1.73;;;;;;;14.30;68.08;99543.00;5056074;27;103276;-67
2023/02/17 10:20:17;;;;;;;1.50;1.20;;;;;;;14.44;67.40;99548.19;5044114;27;102989;-68
2023/02/17 10:22:52;;;;;;;2.60;1.60;;;;;;;14.46;67.70;99548.91;5046549;27;103809;-68
2023/02/17 10:25:33;;;;;;;1.57;1.47;;;;;;;14.61;67.64;99530.97;5052516;27;104586;-67
2023/02/17 10:28:08;;;;;;;1.50;1.40;;;;;;;14.81;66.56;99538.28;5044538;27;103401;-67
2023/02/17 10:30:44;;;;;;;2.70;1.17;;;;;;;15.13;66.02;99533.09;5040115;27;102767;-68
2023/02/17 10:33:20;;;;;;;3.03;1.50;;;;;;;14.96;66.54;99530.94;5047007;27;102936;-68
2023/02/17 10:35:52;;;;;;;2.40;1.20;;;;;;;14.83;66.58;99524.84;5042134;27;103050;-68
2023/02/17 10:38:38;;;;;;;1.40;1.30;;;;;;;15.15;66.37;99525.03;5046796;27;103210;-68
2023/02/17 10:41:12;;;;;;;1.27;1.17;;;;;;;15.06;65.96;99521.25;5045713;27;103201;-67
2023/02/17 10:43:43;;;;;;;2.23;1.87;;;;;;;14.93;66.29;99525.84;5045291;27;102699;-67
2023/02/17 10:46:15;;;;;;;1.20;1.10;;;;;;;15.32;65.53;99520.06;5055804;27;103753;-67
2023/02/17 10:48:47;;;;;;;1.20;0.93;;;;;;;15.18;65.16;99519.47;5036128;27;103257;-68
2023/02/17 10:51:18;;;;;;;1.60;1.20;;;;;;;15.31;65.26;99521.03;5043830;27;102690;-68
2023/02/17 10:53:51;;;;;;;1.27;1.00;;;;;;;15.23;65.29;99512.81;5056309;27;103586;-67
2023/02/17 10:56:23;;;;;;;3.27;1.20;;;;;;;15.08;66.01;99514.00;5048427;27;103269;-69
2023/02/17 10:58:57;;;;;;;2.70;1.40;;;;;;;15.51;64.57;99506.19;5057682;27;103181;-69
2023/02/17 11:01:25;;;;;;;2.33;0.90;;;;;;;16.09;62.79;99507.63;5044831;27;102690;-69
2023/02/17 11:04:01;;;;;;;1.40;0.97;;;;;;;15.92;63.64;99510.81;5037678;27;104414;-69
2023/02/17 11:06:29;;;;;;;1.60;1.10;;;;;;;16.19;62.90;99503.25;5042651;27;103450;-69
2023/02/17 11:09:01;;;;;;;1.27;1.00;;;;;;;16.72;61.25;99490.78;5040304;27;103275;-75
2023/02/17 11:11:31;;;;;;;1.07;1.00;;;;;;;16.48;62.42;99493.63;5035283;27;103511;-75
2023/02/17 11:14:11;;;;;;;3.23;1.40;;;;;;;16.35;62.09;99498.31;5039880;27;102667;-78
2023/02/17 11:16:42;;;;;;;1.17;0.80;;;;;;;16.47;62.35;99486.63;5035265;27;103366;-76
2023/02/17 11:19:23;;;;;;;1.57;0.87;;;;;;;16.51;61.93;99482.72;5038530;27;103218;-74
2023/02/17 11:21:51;;;;;;;1.10;0.80;;;;;;;16.20;63.36;99479.09;5032379;27;102698;-72
2023/02/17 11:24:21;;;;;;;1.43;0.70;;;;;;;15.96;63.88;99482.97;5025910;27;104300;-72
2023/02/17 11:26:57;;;;;;;1.43;1.10;;;;;;;15.91;64.39;99486.00;5041789;27;104494;-72
2023/02/17 11:29:25;;;;;;;1.80;0.90;;;;;;;15.89;64.14;99485.28;5047936;27;103247;-73
2023/02/17 11:32:00;;;;;;;2.40;1.00;;;;;;;16.02;63.93;99488.66;5046410;27;103011;-72
2023/02/17 11:34:31;;;;;;;1.17;0.57;;;;;;;15.59;64.96;99491.28;5048576;27;103742;-72
2023/02/17 11:37:03;;;;;;;1.00;0.80;;;;;;;15.65;65.35;99496.13;5038746;27;103317;-72
2023/02/17 11:39:39;;;;;;;1.13;0.77;;;;;;;15.89;64.42;99484.41;5046438;27;102980;-71
2023/02/17 11:42:14;;;;;;;0.93;0.60;;;;;;;15.87;64.24;99494.34;5052420;27;102796;-70
2023/02/17 11:44:42;;;;;;;0.80;0.70;;;;;;;15.86;65.09;99485.50;5050355;27;104105;-69